sensor_id;sensor_type;location;lat;lon;timestamp;pressure;altitude;pressure_sealevel;temperature;humidity
58739;BME280;44512;53.046;18.604;2023-10-09T00:02:49;102406.95;;;7.81;48.72
58739;BME280;44512;53.046;18.604;2023-10-09T00:13:19;102399.86;;;7.80;49.18
58739;BME280;44512;53.046;18.604;2023-10-09T00:23:47;102389.63;;;7.74;49.60
58739;BME280;44512;53.046;18.604;2023-10-09T00:34:17;102377.56;;;7.69;50.01
58739;BME280;44512;53.046;18.604;2023-10-09T00:44:43;102347.64;;;7.62;50.39
58739;BME280;44512;53.046;18.604;2023-10-09T00:55:12;102350.48;;;7.51;50.58
58739;BME280;44512;53.046;18.604;2023-10-09T01:05:40;102332.30;;;7.43;50.81
58739;BME280;44512;53.046;18.604;2023-10-09T01:16:08;102331.75;;;7.40;50.64
58739;BME280;44512;53.046;18.604;2023-10-09T01:26:41;102339.41;;;7.35;51.13
58739;BME280;44512;53.046;18.604;2023-10-09T01:37:10;102319.38;;;7.27;51.40
58739;BME280;44512;53.046;18.604;2023-10-09T01:47:34;102322.38;;;7.24;51.41
58739;BME280;44512;53.046;18.604;2023-10-09T01:58:04;102328.59;;;7.15;51.49
58739;BME280;44512;53.046;18.604;2023-10-09T02:08:30;102305.63;;;7.11;51.66
58739;BME280;44512;53.046;18.604;2023-10-09T02:18:59;102314.70;;;7.10;51.93
58739;BME280;44512;53.046;18.604;2023-10-09T02:29:27;102318.39;;;7.09;52.16
58739;BME280;44512;53.046;18.604;2023-10-09T02:39:56;102284.64;;;7.05;52.44
58739;BME280;44512;53.046;18.604;2023-10-09T02:50:24;102284.64;;;7.05;52.70
58739;BME280;44512;53.046;18.604;2023-10-09T03:00:52;102254.17;;;7.04;53.05
58739;BME280;44512;53.046;18.604;2023-10-09T03:11:21;102234.18;;;7.07;53.40
58739;BME280;44512;53.046;18.604;2023-10-09T03:21:49;102228.95;;;7.05;53.86
58739;BME280;44512;53.046;18.604;2023-10-09T03:32:18;102220.02;;;7.05;54.24
58739;BME280;44512;53.046;18.604;2023-10-09T03:42:46;102208.56;;;7.03;54.45
58739;BME280;44512;53.046;18.604;2023-10-09T03:53:14;102170.14;;;7.01;54.42
58739;BME280;44512;53.046;18.604;2023-10-09T04:03:44;102143.52;;;6.98;54.47
58739;BME280;44512;53.046;18.604;2023-10-09T04:14:12;102138.84;;;7.00;54.48
58739;BME280;44512;53.046;18.604;2023-10-09T04:24:40;102135.87;;;7.03;54.53
58739;BME280;44512;53.046;18.604;2023-10-09T04:35:08;102134.14;;;7.02;54.54
58739;BME280;44512;53.046;18.604;2023-10-09T04:45:37;102115.30;;;7.02;54.55
58739;BME280;44512;53.046;18.604;2023-10-09T04:56:05;102108.07;;;7.02;54.55
58739;BME280;44512;53.046;18.604;2023-10-09T05:06:33;102121.53;;;7.02;54.77
58739;BME280;44512;53.046;18.604;2023-10-09T05:17:02;102116.30;;;7.01;54.88
58739;BME280;44512;53.046;18.604;2023-10-09T05:27:30;102118.84;;;7.02;55.00
58739;BME280;44512;53.046;18.604;2023-10-09T05:37:58;102114.33;;;7.03;54.97
58739;BME280;44512;53.046;18.604;2023-10-09T05:48:27;102120.26;;;7.07;55.12
58739;BME280;44512;53.046;18.604;2023-10-09T05:58:55;102098.45;;;7.10;55.79
58739;BME280;44512;53.046;18.604;2023-10-09T06:09:24;102110.05;;;7.10;56.78
58739;BME280;44512;53.046;18.604;2023-10-09T06:19:52;102083.71;;;7.14;57.13
58739;BME280;44512;53.046;18.604;2023-10-09T06:30:20;102087.52;;;7.11;57.54
58739;BME280;44512;53.046;18.604;2023-10-09T06:40:50;102075.47;;;7.15;57.93
58739;BME280;44512;53.046;18.604;2023-10-09T06:51:17;102066.52;;;7.24;58.19
58739;BME280;44512;53.046;18.604;2023-10-09T07:01:46;102054.16;;;7.31;58.67
58739;BME280;44512;53.046;18.604;2023-10-09T07:12:14;102072.55;;;7.46;58.80
58739;BME280;44512;53.046;18.604;2023-10-09T07:22:43;102073.37;;;7.56;58.52
58739;BME280;44512;53.046;18.604;2023-10-09T07:33:11;102055.51;;;7.55;58.35
58739;BME280;44512;53.046;18.604;2023-10-09T07:43:39;102082.34;;;7.74;58.11
58739;BME280;44512;53.046;18.604;2023-10-09T07:54:08;102096.23;;;7.79;57.86
58739;BME280;44512;53.046;18.604;2023-10-09T08:04:36;102107.97;;;7.88;57.69
58739;BME280;44512;53.046;18.604;2023-10-09T08:15:07;102099.84;;;7.98;57.95
58739;BME280;44512;53.046;18.604;2023-10-09T08:25:33;102104.34;;;8.07;58.13
58739;BME280;44512;53.046;18.604;2023-10-09T08:36:01;102067.37;;;8.17;57.62
58739;BME280;44512;53.046;18.604;2023-10-09T08:46:30;102059.20;;;8.27;56.35
58739;BME280;44512;53.046;18.604;2023-10-09T08:56:58;102046.64;;;8.35;55.84
58739;BME280;44512;53.046;18.604;2023-10-09T09:07:30;102039.35;;;8.46;55.27
58739;BME280;44512;53.046;18.604;2023-10-09T09:18:05;102027.64;;;8.55;54.93
58739;BME280;44512;53.046;18.604;2023-10-09T09:28:24;102033.97;;;8.64;54.44
58739;BME280;44512;53.046;18.604;2023-10-09T09:38:52;102023.05;;;8.73;54.31
58739;BME280;44512;53.046;18.604;2023-10-09T09:49:21;102026.84;;;8.80;53.89
58739;BME280;44512;53.046;18.604;2023-10-09T09:59:49;102019.12;;;8.85;53.63
58739;BME280;44512;53.046;18.604;2023-10-09T10:31:14;102000.69;;;9.07;54.61
58739;BME280;44512;53.046;18.604;2023-10-09T10:41:57;102002.58;;;9.14;54.66
58739;BME280;44512;53.046;18.604;2023-10-09T10:57:26;101981.70;;;9.25;54.16
58739;BME280;44512;53.046;18.604;2023-10-09T11:07:58;101968.41;;;9.31;54.34
58739;BME280;44512;53.046;18.604;2023-10-09T11:18:23;101965.72;;;9.39;54.37
58739;BME280;44512;53.046;18.604;2023-10-09T11:39:27;101942.51;;;9.63;54.49
58739;BME280;44512;53.046;18.604;2023-10-09T11:49:53;101935.77;;;9.75;54.32
58739;BME280;44512;53.046;18.604;2023-10-09T12:00:17;101951.36;;;9.89;54.35
58739;BME280;44512;53.046;18.604;2023-10-09T12:10:45;101929.91;;;10.04;54.81
58739;BME280;44512;53.046;18.604;2023-10-09T12:21:13;101919.42;;;10.17;54.67
58739;BME280;44512;53.046;18.604;2023-10-09T12:31:42;101905.25;;;10.32;54.58
58739;BME280;44512;53.046;18.604;2023-10-09T12:42:10;101873.59;;;10.49;54.68
58739;BME280;44512;53.046;18.604;2023-10-09T12:52:39;101862.39;;;10.68;54.65
58739;BME280;44512;53.046;18.604;2023-10-09T13:03:07;101856.92;;;10.84;54.89
58739;BME280;44512;53.046;18.604;2023-10-09T13:13:36;101846.73;;;10.94;54.51
58739;BME280;44512;53.046;18.604;2023-10-09T13:24:04;101827.03;;;11.09;54.34
58739;BME280;44512;53.046;18.604;2023-10-09T13:34:32;101829.30;;;11.28;54.25
58739;BME280;44512;53.046;18.604;2023-10-09T13:45:02;101835.89;;;11.57;53.27
58739;BME280;44512;53.046;18.604;2023-10-09T13:55:29;101835.06;;;11.79;53.19
58739;BME280;44512;53.046;18.604;2023-10-09T14:05:57;101832.30;;;11.87;52.39
58739;BME280;44512;53.046;18.604;2023-10-09T14:16:27;101839.06;;;11.91;51.96
58739;BME280;44512;53.046;18.604;2023-10-09T14:26:53;101851.00;;;12.05;51.95
58739;BME280;44512;53.046;18.604;2023-10-09T14:37:22;101853.03;;;12.03;51.98
58739;BME280;44512;53.046;18.604;2023-10-09T14:47:50;101864.37;;;12.07;51.97
58739;BME280;44512;53.046;18.604;2023-10-09T14:58:18;101853.36;;;12.23;52.10
58739;BME280;44512;53.046;18.604;2023-10-09T15:08:47;101879.42;;;12.32;51.71
58739;BME280;44512;53.046;18.604;2023-10-09T15:19:16;101859.72;;;12.83;50.11
58739;BME280;44512;53.046;18.604;2023-10-09T15:29:44;101858.17;;;12.50;50.70
58739;BME280;44512;53.046;18.604;2023-10-09T15:40:12;101875.67;;;12.33;50.81
58739;BME280;44512;53.046;18.604;2023-10-09T15:50:45;101886.32;;;12.20;51.16
58739;BME280;44512;53.046;18.604;2023-10-09T16:01:13;101889.45;;;12.09;52.00
58739;BME280;44512;53.046;18.604;2023-10-09T16:11:38;101915.02;;;11.91;53.23
58739;BME280;44512;53.046;18.604;2023-10-09T16:22:05;101910.87;;;11.72;54.04
58739;BME280;44512;53.046;18.604;2023-10-09T16:32:34;101918.26;;;11.56;54.41
58739;BME280;44512;53.046;18.604;2023-10-09T16:43:02;101928.53;;;11.37;54.77
58739;BME280;44512;53.046;18.604;2023-10-09T16:53:31;101927.21;;;11.25;55.24
58739;BME280;44512;53.046;18.604;2023-10-09T17:03:59;101925.41;;;11.09;55.59
58739;BME280;44512;53.046;18.604;2023-10-09T17:14:27;101952.89;;;10.90;55.70
58739;BME280;44512;53.046;18.604;2023-10-09T17:24:56;101949.38;;;10.73;56.12
58739;BME280;44512;53.046;18.604;2023-10-09T17:35:24;101959.20;;;10.58;56.38
58739;BME280;44512;53.046;18.604;2023-10-09T17:45:53;101961.74;;;10.43;56.51
58739;BME280;44512;53.046;18.604;2023-10-09T17:56:21;101950.42;;;10.31;56.81
58739;BME280;44512;53.046;18.604;2023-10-09T18:06:50;101954.45;;;10.19;56.89
58739;BME280;44512;53.046;18.604;2023-10-09T18:17:18;101968.80;;;10.11;57.13
58739;BME280;44512;53.046;18.604;2023-10-09T18:27:46;101976.22;;;10.01;57.21
58739;BME280;44512;53.046;18.604;2023-10-09T18:38:15;101983.14;;;9.87;57.29
58739;BME280;44512;53.046;18.604;2023-10-09T18:48:43;101978.67;;;9.70;57.36
58739;BME280;44512;53.046;18.604;2023-10-09T18:59:12;101979.65;;;9.53;57.39
58739;BME280;44512;53.046;18.604;2023-10-09T19:09:40;101977.02;;;9.35;57.42
58739;BME280;44512;53.046;18.604;2023-10-09T19:20:09;101988.59;;;9.19;57.46
58739;BME280;44512;53.046;18.604;2023-10-09T19:30:37;101992.22;;;9.02;57.29
58739;BME280;44512;53.046;18.604;2023-10-09T19:41:06;101991.77;;;8.88;57.44
58739;BME280;44512;53.046;18.604;2023-10-09T19:51:34;102004.59;;;8.86;58.08
58739;BME280;44512;53.046;18.604;2023-10-09T20:02:03;102004.39;;;8.80;57.57
58739;BME280;44512;53.046;18.604;2023-10-09T20:12:31;102012.51;;;8.62;57.36
58739;BME280;44512;53.046;18.604;2023-10-09T20:23:00;102017.48;;;8.49;57.52
58739;BME280;44512;53.046;18.604;2023-10-09T20:33:32;102004.73;;;8.41;57.41
58739;BME280;44512;53.046;18.604;2023-10-09T20:43:56;102026.13;;;8.25;57.47
58739;BME280;44512;53.046;18.604;2023-10-09T20:54:25;102024.80;;;8.11;57.54
58739;BME280;44512;53.046;18.604;2023-10-09T21:04:53;102019.63;;;8.00;57.52
58739;BME280;44512;53.046;18.604;2023-10-09T21:15:22;102031.59;;;7.97;57.74
58739;BME280;44512;53.046;18.604;2023-10-09T21:25:50;102021.88;;;7.87;57.42
58739;BME280;44512;53.046;18.604;2023-10-09T21:36:19;102022.48;;;7.80;57.51
58739;BME280;44512;53.046;18.604;2023-10-09T21:46:47;102018.77;;;7.81;58.66
58739;BME280;44512;53.046;18.604;2023-10-09T21:57:16;102035.48;;;7.85;59.63
58739;BME280;44512;53.046;18.604;2023-10-09T22:07:45;102058.01;;;7.66;58.59
58739;BME280;44512;53.046;18.604;2023-10-09T22:18:13;102042.76;;;7.47;58.31
58739;BME280;44512;53.046;18.604;2023-10-09T22:28:42;102045.40;;;7.29;58.24
58739;BME280;44512;53.046;18.604;2023-10-09T22:39:10;102036.93;;;7.15;58.35
58739;BME280;44512;53.046;18.604;2023-10-09T22:49:38;102053.67;;;7.09;58.39
58739;BME280;44512;53.046;18.604;2023-10-09T23:00:08;102046.61;;;6.98;58.20
58739;BME280;44512;53.046;18.604;2023-10-09T23:10:35;102052.86;;;6.89;58.14
58739;BME280;44512;53.046;18.604;2023-10-09T23:21:04;102069.01;;;6.79;57.92
58739;BME280;44512;53.046;18.604;2023-10-09T23:31:35;102075.09;;;6.71;57.74
58739;BME280;44512;53.046;18.604;2023-10-09T23:42:01;102079.62;;;6.61;57.83
58739;BME280;44512;53.046;18.604;2023-10-09T23:52:29;102093.94;;;6.52;57.74
